sensor_id;sensor_type;location;lat;lon;timestamp;pressure;altitude;pressure_sealevel;temperature;humidity
14885;BME280;7534;50.762;7.000;2022-12-18T00:01:37;144174.78;;;-8.05;92.64
14885;BME280;7534;50.762;7.000;2022-12-18T00:04:07;144187.63;;;-8.00;93.39
14885;BME280;7534;50.762;7.000;2022-12-18T00:06:38;144203.09;;;-7.94;93.11
14885;BME280;7534;50.762;7.000;2022-12-18T00:09:05;144187.63;;;-8.00;93.08
14885;BME280;7534;50.762;7.000;2022-12-18T00:11:36;144182.53;;;-8.02;92.90
14885;BME280;7534;50.762;7.000;2022-12-18T00:14:06;144181.22;;;-8.03;92.66
14885;BME280;7534;50.762;7.000;2022-12-18T00:16:34;144178.66;;;-8.04;92.80
14885;BME280;7534;50.762;7.000;2022-12-18T00:19:09;144187.63;;;-8.00;93.86
14885;BME280;7534;50.762;7.000;2022-12-18T00:21:36;144174.78;;;-8.05;94.05
14885;BME280;7534;50.762;7.000;2022-12-18T00:24:22;144209.47;;;-7.92;93.99
14885;BME280;7534;50.762;7.000;2022-12-18T00:26:52;144223.66;;;-7.86;93.68
14885;BME280;7534;50.762;7.000;2022-12-18T00:29:21;144219.78;;;-7.88;93.46
14885;BME280;7534;50.762;7.000;2022-12-18T00:31:54;144221.06;;;-7.87;92.93
14885;BME280;7534;50.762;7.000;2022-12-18T00:34:24;144215.91;;;-7.89;92.86
14885;BME280;7534;50.762;7.000;2022-12-18T00:36:54;144210.78;;;-7.91;92.99
14885;BME280;7534;50.762;7.000;2022-12-18T00:39:24;144204.31;;;-7.94;92.92
14885;BME280;7534;50.762;7.000;2022-12-18T00:41:56;144212.06;;;-7.91;92.88
14885;BME280;7534;50.762;7.000;2022-12-18T00:44:41;144201.78;;;-7.95;92.75
14885;BME280;7534;50.762;7.000;2022-12-18T00:47:10;144192.78;;;-7.98;92.51
14885;BME280;7534;50.762;7.000;2022-12-18T00:49:37;144196.66;;;-7.97;92.53
14885;BME280;7534;50.762;7.000;2022-12-18T00:52:07;144167.06;;;-8.09;92.23
14885;BME280;7534;50.762;7.000;2022-12-18T00:54:35;144149.06;;;-8.16;92.41
14885;BME280;7534;50.762;7.000;2022-12-18T00:57:04;144133.66;;;-8.22;92.74
14885;BME280;7534;50.762;7.000;2022-12-18T00:59:35;144172.22;;;-8.06;92.42
14885;BME280;7534;50.762;7.000;2022-12-18T01:02:05;144154.22;;;-8.14;91.98
14885;BME280;7534;50.762;7.000;2022-12-18T01:04:33;144156.81;;;-8.13;91.89
14885;BME280;7534;50.762;7.000;2022-12-18T01:07:01;144136.25;;;-8.21;91.79
14885;BME280;7534;50.762;7.000;2022-12-18T01:09:28;144129.78;;;-8.23;91.83
14885;BME280;7534;50.762;7.000;2022-12-18T01:12:01;144141.38;;;-8.19;91.67
14885;BME280;7534;50.762;7.000;2022-12-18T01:14:29;144131.09;;;-8.23;91.28
14885;BME280;7534;50.762;7.000;2022-12-18T01:16:56;144123.34;;;-8.26;91.52
14885;BME280;7534;50.762;7.000;2022-12-18T01:19:24;144109.28;;;-8.31;91.23
14885;BME280;7534;50.762;7.000;2022-12-18T01:21:54;144105.44;;;-8.33;91.19
14885;BME280;7534;50.762;7.000;2022-12-18T01:24:28;144111.81;;;-8.30;91.20
14885;BME280;7534;50.762;7.000;2022-12-18T01:26:54;144102.84;;;-8.34;91.23
14885;BME280;7534;50.762;7.000;2022-12-18T01:29:20;144087.44;;;-8.40;91.30
14885;BME280;7534;50.762;7.000;2022-12-18T01:31:45;144086.16;;;-8.40;91.20
14885;BME280;7534;50.762;7.000;2022-12-18T01:34:11;144084.88;;;-8.41;91.09
14885;BME280;7534;50.762;7.000;2022-12-18T01:36:38;144077.19;;;-8.44;91.37
14885;BME280;7534;50.762;7.000;2022-12-18T01:39:12;144077.19;;;-8.44;91.60
14885;BME280;7534;50.762;7.000;2022-12-18T01:41:39;144093.88;;;-8.37;91.56
14885;BME280;7534;50.762;7.000;2022-12-18T01:47:39;144087.44;;;-8.40;93.74
14885;BME280;7534;50.762;7.000;2022-12-18T01:50:16;144118.25;;;-8.28;94.13
14885;BME280;7534;50.762;7.000;2022-12-18T01:52:50;144172.22;;;-8.06;94.67
14885;BME280;7534;50.762;7.000;2022-12-18T01:55:20;144167.06;;;-8.09;95.08
14885;BME280;7534;50.762;7.000;2022-12-18T01:57:50;144149.06;;;-8.16;96.22
14885;BME280;7534;50.762;7.000;2022-12-18T02:00:21;144205.59;;;-7.93;96.86
14885;BME280;7534;50.762;7.000;2022-12-18T02:02:47;144222.38;;;-7.87;97.38
14885;BME280;7534;50.762;7.000;2022-12-18T02:05:40;144241.66;;;-7.79;97.73
14885;BME280;7534;50.762;7.000;2022-12-18T02:08:21;144235.19;;;-7.82;97.58
14885;BME280;7534;50.762;7.000;2022-12-18T02:11:08;144245.47;;;-7.78;97.53
14885;BME280;7534;50.762;7.000;2022-12-18T02:14:02;144253.19;;;-7.75;97.30
14885;BME280;7534;50.762;7.000;2022-12-18T02:17:08;144258.34;;;-7.73;97.13
14885;BME280;7534;50.762;7.000;2022-12-18T02:20:05;144267.31;;;-7.69;97.09
14885;BME280;7534;50.762;7.000;2022-12-18T02:25:51;144262.22;;;-7.71;96.27
14885;BME280;7534;50.762;7.000;2022-12-18T02:28:22;144242.94;;;-7.79;96.19
14885;BME280;7534;50.762;7.000;2022-12-18T02:30:56;144275.06;;;-7.66;96.52
14885;BME280;7534;50.762;7.000;2022-12-18T02:33:25;144275.06;;;-7.66;96.47
14885;BME280;7534;50.762;7.000;2022-12-18T02:35:55;144290.47;;;-7.60;95.96
14885;BME280;7534;50.762;7.000;2022-12-18T02:38:25;144239.06;;;-7.80;95.50
14885;BME280;7534;50.762;7.000;2022-12-18T02:40:52;144228.75;;;-7.84;96.15
14885;BME280;7534;50.762;7.000;2022-12-18T02:43:19;144226.19;;;-7.85;96.53
14885;BME280;7534;50.762;7.000;2022-12-18T02:46:00;144244.22;;;-7.78;96.01
14885;BME280;7534;50.762;7.000;2022-12-18T02:48:34;144239.06;;;-7.80;95.82
14885;BME280;7534;50.762;7.000;2022-12-18T02:51:29;144218.50;;;-7.88;96.31
14885;BME280;7534;50.762;7.000;2022-12-18T02:57:15;144254.47;;;-7.74;97.01
14885;BME280;7534;50.762;7.000;2022-12-18T03:00:30;144262.22;;;-7.71;97.18
14885;BME280;7534;50.762;7.000;2022-12-18T03:03:13;144267.31;;;-7.69;97.61
14885;BME280;7534;50.762;7.000;2022-12-18T03:05:53;144263.50;;;-7.71;97.94
14885;BME280;7534;50.762;7.000;2022-12-18T03:08:27;144282.78;;;-7.63;97.82
14885;BME280;7534;50.762;7.000;2022-12-18T03:11:07;144277.63;;;-7.65;97.32
14885;BME280;7534;50.762;7.000;2022-12-18T03:13:37;144291.75;;;-7.59;97.03
14885;BME280;7534;50.762;7.000;2022-12-18T03:16:09;144290.47;;;-7.60;97.10
14885;BME280;7534;50.762;7.000;2022-12-18T03:18:44;144273.75;;;-7.66;97.13
14885;BME280;7534;50.762;7.000;2022-12-18T03:21:16;144282.78;;;-7.63;97.06
14885;BME280;7534;50.762;7.000;2022-12-18T03:23:49;144285.38;;;-7.62;96.54
14885;BME280;7534;50.762;7.000;2022-12-18T03:26:23;144248.03;;;-7.77;96.08
14885;BME280;7534;50.762;7.000;2022-12-18T03:29:13;144244.22;;;-7.78;96.05
14885;BME280;7534;50.762;7.000;2022-12-18T03:32:05;144235.19;;;-7.82;96.90
14885;BME280;7534;50.762;7.000;2022-12-18T03:34:34;144253.19;;;-7.75;97.35
14885;BME280;7534;50.762;7.000;2022-12-18T03:37:01;144272.47;;;-7.67;97.80
14885;BME280;7534;50.762;7.000;2022-12-18T03:39:27;144264.78;;;-7.70;97.95
14885;BME280;7534;50.762;7.000;2022-12-18T03:42:09;144280.22;;;-7.64;98.31
14885;BME280;7534;50.762;7.000;2022-12-18T03:47:48;144284.06;;;-7.62;97.97
14885;BME280;7534;50.762;7.000;2022-12-18T03:53:28;144264.78;;;-7.70;97.60
14885;BME280;7534;50.762;7.000;2022-12-18T03:55:58;144267.31;;;-7.69;97.04
14885;BME280;7534;50.762;7.000;2022-12-18T03:58:26;144284.06;;;-7.62;97.66
14885;BME280;7534;50.762;7.000;2022-12-18T04:00:56;144293.06;;;-7.59;98.03
14885;BME280;7534;50.762;7.000;2022-12-18T04:03:26;144305.94;;;-7.54;98.74
14885;BME280;7534;50.762;7.000;2022-12-18T04:05:55;144336.78;;;-7.42;98.38
14885;BME280;7534;50.762;7.000;2022-12-18T04:08:23;144334.22;;;-7.43;98.47
14885;BME280;7534;50.762;7.000;2022-12-18T04:10:49;144343.22;;;-7.39;98.56
14885;BME280;7534;50.762;7.000;2022-12-18T04:13:31;144363.81;;;-7.31;98.56
14885;BME280;7534;50.762;7.000;2022-12-18T04:15:57;144356.06;;;-7.34;98.03
14885;BME280;7534;50.762;7.000;2022-12-18T04:18:23;144338.06;;;-7.41;98.11
14885;BME280;7534;50.762;7.000;2022-12-18T04:20:48;144345.81;;;-7.38;97.96
14885;BME280;7534;50.762;7.000;2022-12-18T04:23:14;144338.06;;;-7.41;97.69
14885;BME280;7534;50.762;7.000;2022-12-18T04:25:40;144343.22;;;-7.39;97.92
14885;BME280;7534;50.762;7.000;2022-12-18T04:28:05;144330.34;;;-7.44;97.54
14885;BME280;7534;50.762;7.000;2022-12-18T04:30:31;144343.22;;;-7.39;97.29
14885;BME280;7534;50.762;7.000;2022-12-18T04:32:57;144375.38;;;-7.26;97.33
14885;BME280;7534;50.762;7.000;2022-12-18T04:35:23;144352.22;;;-7.36;96.72
14885;BME280;7534;50.762;7.000;2022-12-18T04:37:48;144347.09;;;-7.38;96.36
14885;BME280;7534;50.762;7.000;2022-12-18T04:40:14;144352.22;;;-7.36;96.27
14885;BME280;7534;50.762;7.000;2022-12-18T04:42:40;144329.03;;;-7.45;95.91
14885;BME280;7534;50.762;7.000;2022-12-18T04:45:07;144352.22;;;-7.36;95.76
14885;BME280;7534;50.762;7.000;2022-12-18T04:47:33;144352.22;;;-7.36;95.89
14885;BME280;7534;50.762;7.000;2022-12-18T04:49:59;144357.38;;;-7.34;96.42
14885;BME280;7534;50.762;7.000;2022-12-18T04:52:24;144367.69;;;-7.29;96.63
14885;BME280;7534;50.762;7.000;2022-12-18T04:54:50;144385.69;;;-7.22;96.46
14885;BME280;7534;50.762;7.000;2022-12-18T04:57:16;144401.09;;;-7.16;96.68
14885;BME280;7534;50.762;7.000;2022-12-18T04:59:43;144410.09;;;-7.13;96.45
14885;BME280;7534;50.762;7.000;2022-12-18T05:02:10;144453.84;;;-6.96;96.64
14885;BME280;7534;50.762;7.000;2022-12-18T05:04:35;144468.03;;;-6.90;96.40
14885;BME280;7534;50.762;7.000;2022-12-18T05:07:01;144493.72;;;-6.80;96.83
14885;BME280;7534;50.762;7.000;2022-12-18T05:09:27;144498.88;;;-6.78;96.16
14885;BME280;7534;50.762;7.000;2022-12-18T05:11:53;144513.03;;;-6.72;96.43
14885;BME280;7534;50.762;7.000;2022-12-18T05:14:19;144520.78;;;-6.69;96.36
14885;BME280;7534;50.762;7.000;2022-12-18T05:16:44;144533.63;;;-6.64;96.06
14885;BME280;7534;50.762;7.000;2022-12-18T05:19:10;144552.97;;;-6.57;96.02
14885;BME280;7534;50.762;7.000;2022-12-18T05:21:36;144550.41;;;-6.58;95.94
14885;BME280;7534;50.762;7.000;2022-12-18T05:24:02;144537.50;;;-6.63;95.66
14885;BME280;7534;50.762;7.000;2022-12-18T05:26:27;144536.22;;;-6.63;95.82
14885;BME280;7534;50.762;7.000;2022-12-18T05:28:56;144520.78;;;-6.69;95.29
14885;BME280;7534;50.762;7.000;2022-12-18T05:31:21;144537.50;;;-6.63;95.67
14885;BME280;7534;50.762;7.000;2022-12-18T05:33:48;144516.91;;;-6.71;95.22
14885;BME280;7534;50.762;7.000;2022-12-18T05:36:14;144498.88;;;-6.78;95.14
14885;BME280;7534;50.762;7.000;2022-12-18T05:38:40;144533.63;;;-6.64;95.57
14885;BME280;7534;50.762;7.000;2022-12-18T05:41:07;144541.38;;;-6.61;95.26
14885;BME280;7534;50.762;7.000;2022-12-18T05:43:36;144528.50;;;-6.66;95.15
14885;BME280;7534;50.762;7.000;2022-12-18T05:46:08;144516.91;;;-6.71;94.68
14885;BME280;7534;50.762;7.000;2022-12-18T05:48:36;144511.78;;;-6.73;95.10
14885;BME280;7534;50.762;7.000;2022-12-18T05:51:09;144525.94;;;-6.67;95.04
14885;BME280;7534;50.762;7.000;2022-12-18T05:53:36;144507.91;;;-6.74;94.88
14885;BME280;7534;50.762;7.000;2022-12-18T05:56:05;144525.94;;;-6.67;94.67
14885;BME280;7534;50.762;7.000;2022-12-18T05:58:32;144513.03;;;-6.72;94.91
14885;BME280;7534;50.762;7.000;2022-12-18T06:01:09;144509.22;;;-6.74;94.64
14885;BME280;7534;50.762;7.000;2022-12-18T06:03:36;144528.50;;;-6.66;94.76
14885;BME280;7534;50.762;7.000;2022-12-18T06:06:01;144537.50;;;-6.63;95.24
14885;BME280;7534;50.762;7.000;2022-12-18T06:08:27;144559.38;;;-6.54;95.06
14885;BME280;7534;50.762;7.000;2022-12-18T06:10:53;144523.34;;;-6.68;94.47
14885;BME280;7534;50.762;7.000;2022-12-18T06:13:20;144552.97;;;-6.57;94.65
14885;BME280;7534;50.762;7.000;2022-12-18T06:15:47;144545.25;;;-6.60;94.47
14885;BME280;7534;50.762;7.000;2022-12-18T06:18:12;144560.69;;;-6.53;94.41
14885;BME280;7534;50.762;7.000;2022-12-18T06:20:38;144571.00;;;-6.49;94.38
14885;BME280;7534;50.762;7.000;2022-12-18T06:23:05;144565.84;;;-6.51;94.19
14885;BME280;7534;50.762;7.000;2022-12-18T06:25:32;144555.50;;;-6.56;94.58
14885;BME280;7534;50.762;7.000;2022-12-18T06:27:58;144542.66;;;-6.61;94.56
14885;BME280;7534;50.762;7.000;2022-12-18T06:30:24;144525.94;;;-6.67;94.93
14885;BME280;7534;50.762;7.000;2022-12-18T06:32:50;144519.47;;;-6.70;95.20
14885;BME280;7534;50.762;7.000;2022-12-18T06:35:16;144533.63;;;-6.64;95.52
14885;BME280;7534;50.762;7.000;2022-12-18T06:37:42;144527.22;;;-6.67;95.69
14885;BME280;7534;50.762;7.000;2022-12-18T06:40:08;144527.22;;;-6.67;95.43
14885;BME280;7534;50.762;7.000;2022-12-18T06:42:34;144519.47;;;-6.70;95.92
14885;BME280;7534;50.762;7.000;2022-12-18T06:45:01;144527.22;;;-6.67;95.91
14885;BME280;7534;50.762;7.000;2022-12-18T06:47:27;144546.53;;;-6.59;96.03
14885;BME280;7534;50.762;7.000;2022-12-18T06:49:53;144541.38;;;-6.61;96.03
14885;BME280;7534;50.762;7.000;2022-12-18T06:52:19;144546.53;;;-6.59;96.08
14885;BME280;7534;50.762;7.000;2022-12-18T06:54:44;144529.81;;;-6.66;96.11
14885;BME280;7534;50.762;7.000;2022-12-18T06:57:10;144538.78;;;-6.62;96.33
14885;BME280;7534;50.762;7.000;2022-12-18T06:59:37;144542.66;;;-6.61;96.18
14885;BME280;7534;50.762;7.000;2022-12-18T07:02:02;144546.53;;;-6.59;96.54
14885;BME280;7534;50.762;7.000;2022-12-18T07:04:29;144561.97;;;-6.53;96.48
14885;BME280;7534;50.762;7.000;2022-12-18T07:06:55;144574.81;;;-6.48;96.76
14885;BME280;7534;50.762;7.000;2022-12-18T07:09:21;144572.28;;;-6.49;96.42
14885;BME280;7534;50.762;7.000;2022-12-18T07:11:47;144574.81;;;-6.48;96.44
14885;BME280;7534;50.762;7.000;2022-12-18T07:14:12;144577.41;;;-6.47;96.70
14885;BME280;7534;50.762;7.000;2022-12-18T07:16:38;144596.72;;;-6.39;96.15
14885;BME280;7534;50.762;7.000;2022-12-18T07:19:04;144576.09;;;-6.47;96.37
14885;BME280;7534;50.762;7.000;2022-12-18T07:21:29;144604.47;;;-6.36;96.09
14885;BME280;7534;50.762;7.000;2022-12-18T07:23:55;144592.88;;;-6.41;96.26
14885;BME280;7534;50.762;7.000;2022-12-18T07:26:22;144616.03;;;-6.32;95.44
14885;BME280;7534;50.762;7.000;2022-12-18T07:28:48;144592.88;;;-6.41;95.73
14885;BME280;7534;50.762;7.000;2022-12-18T07:31:19;144636.63;;;-6.24;95.80
14885;BME280;7534;50.762;7.000;2022-12-18T07:33:46;144625.06;;;-6.28;95.47
14885;BME280;7534;50.762;7.000;2022-12-18T07:36:13;144637.91;;;-6.23;95.58
14885;BME280;7534;50.762;7.000;2022-12-18T07:38:39;144654.69;;;-6.17;95.28
14885;BME280;7534;50.762;7.000;2022-12-18T07:41:11;144644.38;;;-6.21;95.56
14885;BME280;7534;50.762;7.000;2022-12-18T07:43:39;144641.78;;;-6.22;95.68
14885;BME280;7534;50.762;7.000;2022-12-18T07:46:06;144663.69;;;-6.13;95.71
14885;BME280;7534;50.762;7.000;2022-12-18T07:48:32;144643.09;;;-6.21;95.35
14885;BME280;7534;50.762;7.000;2022-12-18T07:51:06;144674.00;;;-6.09;95.53
14885;BME280;7534;50.762;7.000;2022-12-18T07:53:33;144670.13;;;-6.10;94.98
14885;BME280;7534;50.762;7.000;2022-12-18T07:56:06;144676.59;;;-6.08;95.43
14885;BME280;7534;50.762;7.000;2022-12-18T07:58:34;144694.63;;;-6.01;94.75
14885;BME280;7534;50.762;7.000;2022-12-18T08:01:08;144722.94;;;-5.90;94.39
14885;BME280;7534;50.762;7.000;2022-12-18T08:03:34;144725.50;;;-5.89;94.41
14885;BME280;7534;50.762;7.000;2022-12-18T08:06:05;144747.38;;;-5.80;94.44
14885;BME280;7534;50.762;7.000;2022-12-18T08:08:32;144753.81;;;-5.78;94.00
14885;BME280;7534;50.762;7.000;2022-12-18T08:10:59;144757.69;;;-5.76;93.78
14885;BME280;7534;50.762;7.000;2022-12-18T08:13:25;144777.03;;;-5.68;93.95
14885;BME280;7534;50.762;7.000;2022-12-18T08:16:04;144786.00;;;-5.65;93.84
14885;BME280;7534;50.762;7.000;2022-12-18T08:18:33;144827.25;;;-5.49;93.96
14885;BME280;7534;50.762;7.000;2022-12-18T08:23:35;144983.25;;;-4.87;93.54
14885;BME280;7534;50.762;7.000;2022-12-18T08:26:01;145076.09;;;-4.51;91.04
14885;BME280;7534;50.762;7.000;2022-12-18T08:28:27;145126.44;;;-4.31;89.36
14885;BME280;7534;50.762;7.000;2022-12-18T08:30:52;145122.56;;;-4.33;88.29
14885;BME280;7534;50.762;7.000;2022-12-18T08:33:18;145212.91;;;-3.97;87.42
14885;BME280;7534;50.762;7.000;2022-12-18T08:35:44;145249.03;;;-3.83;86.44
14885;BME280;7534;50.762;7.000;2022-12-18T08:38:09;145268.41;;;-3.75;85.83
14885;BME280;7534;50.762;7.000;2022-12-18T08:40:35;145259.34;;;-3.79;85.56
14885;BME280;7534;50.762;7.000;2022-12-18T08:43:01;145304.53;;;-3.61;84.91
14885;BME280;7534;50.762;7.000;2022-12-18T08:45:46;145271.00;;;-3.74;84.43
14885;BME280;7534;50.762;7.000;2022-12-18T08:48:12;145298.06;;;-3.64;84.44
14885;BME280;7534;50.762;7.000;2022-12-18T08:50:37;145305.84;;;-3.61;84.97
14885;BME280;7534;50.762;7.000;2022-12-18T08:53:03;145374.28;;;-3.34;84.22
14885;BME280;7534;50.762;7.000;2022-12-18T08:55:29;145425.94;;;-3.14;83.36
14885;BME280;7534;50.762;7.000;2022-12-18T08:57:54;145419.50;;;-3.16;82.81
14885;BME280;7534;50.762;7.000;2022-12-18T09:00:20;145495.72;;;-2.86;82.62
14885;BME280;7534;50.762;7.000;2022-12-18T09:02:46;145524.13;;;-2.75;81.24
14885;BME280;7534;50.762;7.000;2022-12-18T09:05:12;145529.31;;;-2.73;81.77
14885;BME280;7534;50.762;7.000;2022-12-18T09:07:37;145559.06;;;-2.61;81.14
14885;BME280;7534;50.762;7.000;2022-12-18T09:10:04;145574.56;;;-2.55;79.98
14885;BME280;7534;50.762;7.000;2022-12-18T09:12:31;145573.25;;;-2.56;79.70
14885;BME280;7534;50.762;7.000;2022-12-18T09:14:57;145556.47;;;-2.62;80.11
14885;BME280;7534;50.762;7.000;2022-12-18T09:17:23;145509.94;;;-2.81;80.65
14885;BME280;7534;50.762;7.000;2022-12-18T09:19:48;145481.53;;;-2.92;80.88
14885;BME280;7534;50.762;7.000;2022-12-18T09:22:14;145469.88;;;-2.96;81.25
14885;BME280;7534;50.762;7.000;2022-12-18T09:24:40;145442.72;;;-3.07;81.52
14885;BME280;7534;50.762;7.000;2022-12-18T09:27:06;145406.56;;;-3.21;81.48
14885;BME280;7534;50.762;7.000;2022-12-18T09:29:32;145428.53;;;-3.13;82.39
14885;BME280;7534;50.762;7.000;2022-12-18T09:31:58;145445.31;;;-3.06;82.12
14885;BME280;7534;50.762;7.000;2022-12-18T09:34:23;145447.91;;;-3.05;82.33
14885;BME280;7534;50.762;7.000;2022-12-18T09:36:50;145499.63;;;-2.85;81.99
14885;BME280;7534;50.762;7.000;2022-12-18T09:39:16;145487.97;;;-2.89;81.60
14885;BME280;7534;50.762;7.000;2022-12-18T09:41:55;145500.91;;;-2.84;81.80
14885;BME280;7534;50.762;7.000;2022-12-18T09:44:32;145513.81;;;-2.79;81.47
14885;BME280;7534;50.762;7.000;2022-12-18T09:47:33;145512.50;;;-2.80;81.08
14885;BME280;7534;50.762;7.000;2022-12-18T09:50:16;145551.28;;;-2.64;81.58
14885;BME280;7534;50.762;7.000;2022-12-18T09:52:51;145566.78;;;-2.58;81.20
14885;BME280;7534;50.762;7.000;2022-12-18T09:55:28;145596.53;;;-2.47;81.01
14885;BME280;7534;50.762;7.000;2022-12-18T10:00:53;145587.47;;;-2.50;80.13
14885;BME280;7534;50.762;7.000;2022-12-18T10:03:19;145600.41;;;-2.45;80.02
14885;BME280;7534;50.762;7.000;2022-12-18T10:06:02;145613.31;;;-2.40;80.58
14885;BME280;7534;50.762;7.000;2022-12-18T10:14:37;145646.97;;;-2.27;79.93
14885;BME280;7534;50.762;7.000;2022-12-18T10:20:16;145701.28;;;-2.06;79.75
14885;BME280;7534;50.762;7.000;2022-12-18T10:26:06;145719.38;;;-1.99;79.07
14885;BME280;7534;50.762;7.000;2022-12-18T10:28:36;145716.78;;;-2.00;78.44
14885;BME280;7534;50.762;7.000;2022-12-18T10:31:15;145750.44;;;-1.86;77.75
14885;BME280;7534;50.762;7.000;2022-12-18T10:33:42;145749.13;;;-1.87;78.24
14885;BME280;7534;50.762;7.000;2022-12-18T10:36:08;145773.66;;;-1.77;78.44
14885;BME280;7534;50.762;7.000;2022-12-18T10:38:35;145781.44;;;-1.74;77.94
14885;BME280;7534;50.762;7.000;2022-12-18T10:43:42;145820.25;;;-1.59;77.27
14885;BME280;7534;50.762;7.000;2022-12-18T10:51:24;145822.84;;;-1.58;77.59
14885;BME280;7534;50.762;7.000;2022-12-18T10:54:07;145807.34;;;-1.64;76.99
14885;BME280;7534;50.762;7.000;2022-12-18T10:56:40;145833.22;;;-1.54;77.38
14885;BME280;7534;50.762;7.000;2022-12-18T10:59:14;145840.97;;;-1.51;76.97
14885;BME280;7534;50.762;7.000;2022-12-18T11:02:00;145843.56;;;-1.50;77.38
14885;BME280;7534;50.762;7.000;2022-12-18T11:04:31;145877.19;;;-1.37;77.19
14885;BME280;7534;50.762;7.000;2022-12-18T11:07:08;145844.84;;;-1.49;76.80
14885;BME280;7534;50.762;7.000;2022-12-18T11:09:39;145856.47;;;-1.45;76.93
14885;BME280;7534;50.762;7.000;2022-12-18T11:12:28;145852.63;;;-1.46;76.63
14885;BME280;7534;50.762;7.000;2022-12-18T11:14:57;145868.16;;;-1.40;76.40
14885;BME280;7534;50.762;7.000;2022-12-18T11:17:31;145899.19;;;-1.28;76.53
14885;BME280;7534;50.762;7.000;2022-12-18T11:20:19;145877.19;;;-1.37;75.96
14885;BME280;7534;50.762;7.000;2022-12-18T11:23:00;145852.63;;;-1.46;75.98
14885;BME280;7534;50.762;7.000;2022-12-18T11:25:26;145851.34;;;-1.47;76.17
14885;BME280;7534;50.762;7.000;2022-12-18T11:28:05;145843.56;;;-1.50;76.55
14885;BME280;7534;50.762;7.000;2022-12-18T11:30:36;145843.56;;;-1.50;76.21
14885;BME280;7534;50.762;7.000;2022-12-18T11:33:15;145853.94;;;-1.46;77.10
14885;BME280;7534;50.762;7.000;2022-12-18T11:35:51;145879.78;;;-1.36;76.37
14885;BME280;7534;50.762;7.000;2022-12-18T11:38:37;145879.78;;;-1.36;76.20
14885;BME280;7534;50.762;7.000;2022-12-18T11:43:44;145887.56;;;-1.33;75.60
14885;BME280;7534;50.762;7.000;2022-12-18T11:46:24;145859.06;;;-1.44;76.17
14885;BME280;7534;50.762;7.000;2022-12-18T11:49:20;145879.78;;;-1.36;76.30
14885;BME280;7534;50.762;7.000;2022-12-18T11:52:19;145875.88;;;-1.37;75.98
14885;BME280;7534;50.762;7.000;2022-12-18T11:54:52;145918.59;;;-1.21;76.10
14885;BME280;7534;50.762;7.000;2022-12-18T11:57:33;145906.97;;;-1.25;75.50
14885;BME280;7534;50.762;7.000;2022-12-18T12:00:16;145928.97;;;-1.17;75.43
14885;BME280;7534;50.762;7.000;2022-12-18T12:03:39;145944.50;;;-1.10;75.79
14885;BME280;7534;50.762;7.000;2022-12-18T12:06:32;145913.47;;;-1.23;75.64
14885;BME280;7534;50.762;7.000;2022-12-18T12:09:45;145875.88;;;-1.37;76.12
14885;BME280;7534;50.762;7.000;2022-12-18T12:23:59;145878.47;;;-1.36;77.27
14885;BME280;7534;50.762;7.000;2022-12-18T12:26:55;145865.56;;;-1.41;76.60
14885;BME280;7534;50.762;7.000;2022-12-18T12:35:46;145891.44;;;-1.31;75.89
14885;BME280;7534;50.762;7.000;2022-12-18T12:38:30;145882.38;;;-1.35;76.03
14885;BME280;7534;50.762;7.000;2022-12-18T12:41:04;145859.06;;;-1.44;76.59
14885;BME280;7534;50.762;7.000;2022-12-18T12:43:46;145881.06;;;-1.35;76.69
14885;BME280;7534;50.762;7.000;2022-12-18T12:46:17;145892.75;;;-1.31;76.44
14885;BME280;7534;50.762;7.000;2022-12-18T12:48:52;145877.19;;;-1.37;76.55
14885;BME280;7534;50.762;7.000;2022-12-18T12:51:30;145899.19;;;-1.28;76.69
14885;BME280;7534;50.762;7.000;2022-12-18T12:53:59;145873.34;;;-1.38;76.72
14885;BME280;7534;50.762;7.000;2022-12-18T12:56:46;145887.56;;;-1.33;76.33
14885;BME280;7534;50.762;7.000;2022-12-18T12:59:56;145914.75;;;-1.22;77.29
14885;BME280;7534;50.762;7.000;2022-12-18T13:08:12;145919.88;;;-1.20;76.91
14885;BME280;7534;50.762;7.000;2022-12-18T13:10:47;145922.50;;;-1.19;75.95
14885;BME280;7534;50.762;7.000;2022-12-18T13:13:14;145931.56;;;-1.16;76.25
14885;BME280;7534;50.762;7.000;2022-12-18T13:16:03;145895.34;;;-1.30;76.08
14885;BME280;7534;50.762;7.000;2022-12-18T13:18:30;145891.44;;;-1.31;76.85
14885;BME280;7534;50.762;7.000;2022-12-18T13:28:52;145921.19;;;-1.20;76.38
14885;BME280;7534;50.762;7.000;2022-12-18T13:34:23;145875.88;;;-1.37;76.20
14885;BME280;7534;50.762;7.000;2022-12-18T13:36:50;145866.84;;;-1.41;76.66
14885;BME280;7534;50.762;7.000;2022-12-18T13:39:31;145887.56;;;-1.33;76.20
14885;BME280;7534;50.762;7.000;2022-12-18T13:44:36;145872.03;;;-1.39;76.48
14885;BME280;7534;50.762;7.000;2022-12-18T13:47:04;145862.97;;;-1.42;76.00
14885;BME280;7534;50.762;7.000;2022-12-18T13:49:40;145877.19;;;-1.37;76.25
14885;BME280;7534;50.762;7.000;2022-12-18T13:52:26;145888.84;;;-1.32;75.84
14885;BME280;7534;50.762;7.000;2022-12-18T13:54:58;145878.47;;;-1.36;76.04
14885;BME280;7534;50.762;7.000;2022-12-18T13:57:31;145875.88;;;-1.37;75.74
14885;BME280;7534;50.762;7.000;2022-12-18T13:59:59;145875.88;;;-1.37;75.78
14885;BME280;7534;50.762;7.000;2022-12-18T14:02:37;145869.44;;;-1.40;75.36
14885;BME280;7534;50.762;7.000;2022-12-18T14:05:04;145879.78;;;-1.36;75.27
14885;BME280;7534;50.762;7.000;2022-12-18T14:07:30;145852.63;;;-1.46;75.50
14885;BME280;7534;50.762;7.000;2022-12-18T14:09:59;145812.53;;;-1.62;75.73
14885;BME280;7534;50.762;7.000;2022-12-18T14:12:34;145804.75;;;-1.65;76.38
14885;BME280;7534;50.762;7.000;2022-12-18T14:17:59;145802.16;;;-1.66;76.90
14885;BME280;7534;50.762;7.000;2022-12-18T14:20:28;145786.63;;;-1.72;76.88
14885;BME280;7534;50.762;7.000;2022-12-18T14:22:56;145772.38;;;-1.78;77.52
14885;BME280;7534;50.762;7.000;2022-12-18T14:25:26;145822.84;;;-1.58;76.91
14885;BME280;7534;50.762;7.000;2022-12-18T14:30:43;145838.38;;;-1.52;75.91
14885;BME280;7534;50.762;7.000;2022-12-18T14:33:16;145830.63;;;-1.55;76.19
14885;BME280;7534;50.762;7.000;2022-12-18T14:36:04;145822.84;;;-1.58;76.62
14885;BME280;7534;50.762;7.000;2022-12-18T14:38:37;145771.13;;;-1.78;77.39
14885;BME280;7534;50.762;7.000;2022-12-18T14:41:12;145794.38;;;-1.69;76.98
14885;BME280;7534;50.762;7.000;2022-12-18T14:43:42;145781.44;;;-1.74;77.32
14885;BME280;7534;50.762;7.000;2022-12-18T14:49:03;145743.94;;;-1.89;77.41
14885;BME280;7534;50.762;7.000;2022-12-18T14:51:33;145736.16;;;-1.92;77.58
14885;BME280;7534;50.762;7.000;2022-12-18T14:54:05;145707.75;;;-2.03;77.65